createdAt,value
2018-09-08T00:01:25.546Z,95167.66
2018-09-08T00:03:56.252Z,95177.52
2018-09-08T00:06:31.891Z,95170.10
2018-09-08T00:09:03.570Z,95173.72
2018-09-08T00:11:34.252Z,95174.69
2018-09-08T00:14:05.163Z,95176.09
2018-09-08T00:16:40.684Z,95178.25
2018-09-08T00:19:16.142Z,95183.34
2018-09-08T00:21:52.174Z,95186.16
2018-09-08T00:24:28.907Z,95188.68
2018-09-08T00:26:58.235Z,95182.30
2018-09-08T00:29:33.997Z,95174.58
2018-09-08T00:32:09.356Z,95180.78
2018-09-08T00:34:41.525Z,95189.14
2018-09-08T00:37:12.033Z,95188.34
2018-09-08T00:39:43.584Z,95178.52
2018-09-08T00:42:14.313Z,95189.27
2018-09-08T00:44:45.201Z,95185.50
2018-09-08T00:47:15.969Z,95184.35
2018-09-08T00:49:46.576Z,95187.35
2018-09-08T00:52:17.248Z,95188.30
2018-09-08T00:54:48.473Z,95184.02
2018-09-08T00:57:19.187Z,95187.23
2018-09-08T00:59:49.742Z,95184.45
2018-09-08T01:02:20.522Z,95186.20
2018-09-08T01:04:52.612Z,95184.52
2018-09-08T01:07:28.313Z,95180.72
2018-09-08T01:10:00.020Z,95182.16
2018-09-08T01:12:31.223Z,95186.80
2018-09-08T01:15:02.808Z,95184.06
2018-09-08T01:17:33.333Z,95195.70
2018-09-08T01:20:03.915Z,95190.87
2018-09-08T01:22:34.734Z,95187.84
2018-09-08T01:25:06.473Z,95190.52
2018-09-08T01:27:37.100Z,95194.71
2018-09-08T01:30:08.369Z,95192.87
2018-09-08T01:32:38.850Z,95198.63
2018-09-08T01:35:10.215Z,95197.44
2018-09-08T01:37:41.099Z,95204.52
2018-09-08T01:40:11.857Z,95207.38
2018-09-08T01:42:42.590Z,95210.58
2018-09-08T01:45:13.854Z,95209.42
2018-09-08T01:47:44.173Z,95205.30
2018-09-08T01:50:14.494Z,95206.20
2018-09-08T01:52:45.029Z,95207.45
2018-09-08T01:55:16.584Z,95208.64
2018-09-08T01:57:47.132Z,95206.75
2018-09-08T02:00:17.746Z,95209.83
2018-09-08T02:02:48.379Z,95218.66
2018-09-08T02:05:19.606Z,95218.93
2018-09-08T02:07:50.044Z,95219.63
2018-09-08T02:10:21.272Z,95211.69
2018-09-08T02:12:51.882Z,95216.94
2018-09-08T02:15:23.320Z,95089.17
2018-09-08T02:17:53.933Z,95216.54
2018-09-08T02:20:24.097Z,95210.38
2018-09-08T02:22:54.797Z,95205.59
2018-09-08T02:25:25.556Z,95216.91
2018-09-08T02:27:56.127Z,95220.33
2018-09-08T02:30:26.587Z,95218.00
2018-09-08T02:32:56.978Z,95211.61
2018-09-08T02:35:28.490Z,95213.20
2018-09-08T02:37:58.650Z,95221.66
2018-09-08T02:40:29.177Z,95212.88
2018-09-08T02:43:00.117Z,95209.85
2018-09-08T02:45:31.031Z,95214.61
2018-09-08T02:48:01.752Z,95217.94
2018-09-08T02:50:33.170Z,95211.89
2018-09-08T02:53:01.974Z,95212.86
2018-09-08T02:55:31.327Z,95218.78
2018-09-08T02:58:00.175Z,95225.45
2018-09-08T03:00:29.664Z,95221.58
2018-09-08T03:02:58.661Z,95211.45
2018-09-08T03:05:27.532Z,95212.66
2018-09-08T03:07:56.611Z,95219.55
2018-09-08T03:10:25.613Z,95227.66
2018-09-08T03:12:54.172Z,95237.14
2018-09-08T03:15:22.718Z,95231.13
2018-09-08T03:17:51.596Z,95222.87
2018-09-08T03:20:20.275Z,95216.69
2018-09-08T03:22:48.995Z,95218.07
2018-09-08T03:25:17.860Z,95221.55
2018-09-08T03:27:46.446Z,95223.96
2018-09-08T03:30:15.128Z,95225.91
2018-09-08T03:32:43.777Z,95221.25
2018-09-08T03:35:12.181Z,95218.95
2018-09-08T03:37:41.089Z,95222.26
2018-09-08T03:40:09.967Z,95215.00
2018-09-08T03:42:38.750Z,95219.66
2018-09-08T03:45:07.520Z,95222.12
2018-09-08T03:47:36.540Z,95221.66
2018-09-08T03:50:05.597Z,95230.97
2018-09-08T03:52:34.591Z,95230.56
2018-09-08T03:55:03.482Z,95235.63
2018-09-08T03:57:32.510Z,95233.39
2018-09-08T04:00:01.469Z,95238.38
2018-09-08T04:02:30.562Z,95237.08
2018-09-08T04:05:01.174Z,95235.33
2018-09-08T04:07:31.767Z,95239.13
2018-09-08T04:10:02.555Z,95240.48
2018-09-08T04:12:33.051Z,95252.58
2018-09-08T04:15:04.335Z,95252.20
2018-09-08T04:17:34.506Z,95259.52
2018-09-08T04:20:04.977Z,95265.05
2018-09-08T04:22:36.531Z,95270.23
2018-09-08T04:25:07.880Z,95272.99
2018-09-08T04:27:38.826Z,95277.45
2018-09-08T04:30:09.051Z,95278.41
2018-09-08T04:32:39.571Z,95279.20
2018-09-08T04:35:10.344Z,95279.64
2018-09-08T04:37:40.833Z,95286.65
2018-09-08T04:40:11.043Z,95282.48
2018-09-08T04:42:41.655Z,95296.01
2018-09-08T04:45:13.172Z,95289.63
2018-09-08T04:47:43.839Z,95292.86
2018-09-08T04:50:13.988Z,95291.84
2018-09-08T04:52:44.418Z,95292.13
2018-09-08T04:55:15.858Z,95293.11
2018-09-08T04:57:46.652Z,95293.33
2018-09-08T05:00:17.083Z,95288.38
2018-09-08T05:02:47.518Z,95299.97
2018-09-08T05:05:19.110Z,95295.72
2018-09-08T05:07:49.695Z,95301.53
2018-09-08T05:10:20.614Z,95297.89
2018-09-08T05:12:51.079Z,95244.73
2018-09-08T05:15:21.987Z,95297.56
2018-09-08T05:17:52.365Z,95292.91
2018-09-08T05:20:22.978Z,95300.08
2018-09-08T05:22:53.862Z,95300.58
2018-09-08T05:25:24.202Z,95298.95
2018-09-08T05:27:54.934Z,95303.72
2018-09-08T05:30:25.462Z,95303.52
2018-09-08T05:32:56.036Z,95296.77
2018-09-08T05:35:26.730Z,95293.01
2018-09-08T05:37:57.183Z,95303.50
2018-09-08T05:40:27.793Z,95308.47
2018-09-08T05:42:58.273Z,95304.41
2018-09-08T05:45:29.076Z,95309.29
2018-09-08T05:47:59.449Z,95311.70
2018-09-08T05:50:29.935Z,95309.88
2018-09-08T05:53:00.627Z,95312.35
2018-09-08T05:55:31.997Z,95305.81
2018-09-08T05:58:02.595Z,95315.09
2018-09-08T06:00:33.143Z,95303.60
2018-09-08T06:03:03.669Z,95302.48
2018-09-08T06:05:34.331Z,95309.52
2018-09-08T06:08:04.966Z,95309.78
2018-09-08T06:10:35.764Z,95314.39
2018-09-08T06:13:06.219Z,95306.63
2018-09-08T06:15:37.051Z,95301.78
2018-09-08T06:18:07.791Z,95310.23
2018-09-08T06:20:38.538Z,95316.38
2018-09-08T06:23:09.518Z,95316.39
2018-09-08T06:25:40.780Z,95317.18
2018-09-08T06:28:10.754Z,95322.79
2018-09-08T06:30:41.264Z,95321.79
2018-09-08T06:33:11.625Z,95326.17
2018-09-08T06:35:42.085Z,95329.34
2018-09-08T06:38:11.845Z,95329.58
2018-09-08T06:40:41.702Z,95326.52
2018-09-08T06:43:11.537Z,95325.48
2018-09-08T06:45:41.462Z,95324.36
2018-09-08T06:48:11.412Z,95328.86
2018-09-08T06:50:41.028Z,95333.59
2018-09-08T06:53:10.647Z,95325.14
2018-09-08T06:55:40.458Z,95331.32
2018-09-08T06:58:10.328Z,95323.77
2018-09-08T07:00:40.259Z,95330.78
2018-09-08T07:03:10.161Z,95330.41
2018-09-08T07:05:39.871Z,95324.48
2018-09-08T07:08:09.654Z,95326.86
2018-09-08T07:10:39.603Z,95325.48
2018-09-08T07:13:09.521Z,95323.47
2018-09-08T07:15:39.338Z,95324.05
2018-09-08T07:18:09.083Z,95327.62
2018-09-08T07:20:38.964Z,95332.28
2018-09-08T07:23:08.748Z,95332.44
2018-09-08T07:25:38.513Z,95333.11
2018-09-08T07:28:08.445Z,95337.80
2018-09-08T07:30:38.608Z,95334.34
2018-09-08T07:33:08.495Z,95332.32
2018-09-08T07:35:38.274Z,95332.36
2018-09-08T07:38:08.104Z,95335.93
2018-09-08T07:40:37.786Z,95330.53
2018-09-08T07:43:07.650Z,95329.98
2018-09-08T07:45:37.577Z,95333.82
2018-09-08T07:48:07.654Z,95327.93
2018-09-08T07:50:37.518Z,95331.39
2018-09-08T07:53:07.450Z,95326.30
2018-09-08T07:55:37.138Z,95326.45
2018-09-08T07:58:07.029Z,95324.01
2018-09-08T08:00:36.927Z,95330.72
2018-09-08T08:03:06.959Z,95324.45
2018-09-08T08:05:37.023Z,95324.13
2018-09-08T08:08:07.193Z,95323.58
2018-09-08T08:10:37.122Z,95318.75
2018-09-08T08:13:07.351Z,95324.69
2018-09-08T08:15:38.174Z,95322.32
2018-09-08T08:18:08.082Z,95328.57
2018-09-08T08:20:38.013Z,95322.31
2018-09-08T08:23:07.770Z,95327.59
2018-09-08T08:25:37.583Z,95325.30
2018-09-08T08:28:07.493Z,95318.61
2018-09-08T08:30:37.292Z,95326.38
2018-09-08T08:33:07.300Z,95324.65
2018-09-08T08:35:37.118Z,95326.84
2018-09-08T08:38:07.025Z,95332.30
2018-09-08T08:40:36.757Z,95331.92
2018-09-08T08:43:06.787Z,95329.37
2018-09-08T08:45:36.749Z,95329.00
2018-09-08T08:48:06.606Z,95328.61
2018-09-08T08:50:46.969Z,95326.16
2018-09-08T08:53:27.275Z,95326.53
2018-09-08T08:55:57.548Z,95328.88
2018-09-08T08:58:27.388Z,95324.58
2018-09-08T09:00:57.114Z,95327.28
2018-09-08T09:03:27.053Z,95323.53
2018-09-08T09:05:56.836Z,95327.40
2018-09-08T09:08:27.255Z,95322.97
2018-09-08T09:10:56.757Z,95329.42
2018-09-08T09:13:26.596Z,95320.05
2018-09-08T09:15:56.380Z,95325.00
2018-09-08T09:20:40.068Z,95318.81
2018-09-08T09:25:19.632Z,95317.45
2018-09-08T09:27:50.790Z,95313.21
2018-09-08T09:30:21.198Z,95315.42
2018-09-08T09:32:51.060Z,95304.70
2018-09-08T09:35:22.647Z,95307.92
2018-09-08T09:37:52.443Z,95309.62
2018-09-08T09:40:23.007Z,95302.94
2018-09-08T09:42:52.749Z,95303.96
2018-09-08T09:45:24.310Z,95305.78
2018-09-08T09:48:00.502Z,95308.22
2018-09-08T09:50:31.055Z,95310.42
2018-09-08T09:53:01.603Z,95314.40
2018-09-08T09:55:32.635Z,95311.52
2018-09-08T09:58:03.962Z,95311.91
2018-09-08T10:00:39.551Z,95307.83
2018-09-08T10:03:09.373Z,95305.45
2018-09-08T10:05:39.236Z,95305.28
2018-09-08T10:08:10.524Z,95296.38
2018-09-08T10:10:41.242Z,95298.59
2018-09-08T10:13:11.130Z,95304.38
2018-09-08T10:15:41.118Z,95298.08
2018-09-08T10:18:12.088Z,95300.78
2018-09-08T10:20:41.878Z,95300.80
2018-09-08T10:23:11.759Z,95298.95
2018-09-08T10:25:41.698Z,95296.59
2018-09-08T10:28:12.337Z,95294.52
2018-09-08T10:30:42.269Z,95292.00
2018-09-08T10:33:12.139Z,95281.30
2018-09-08T10:35:42.018Z,95286.45
2018-09-08T10:38:12.969Z,95277.21
2018-09-08T10:40:42.822Z,95277.52
2018-09-08T10:43:12.556Z,95274.35
2018-09-08T10:45:42.401Z,95273.19
2018-09-08T10:48:13.645Z,95271.88
2018-09-08T10:50:43.465Z,95271.12
2018-09-08T10:53:13.357Z,95269.89
2018-09-08T10:55:43.208Z,95262.83
2018-09-08T10:58:14.161Z,95258.21
2018-09-08T11:00:44.034Z,95250.60
2018-09-08T11:03:13.881Z,95251.00
2018-09-08T11:05:43.724Z,95249.79
2018-09-08T11:08:13.944Z,95240.72
2018-09-08T11:10:43.799Z,95242.01
2018-09-08T11:13:13.661Z,95234.77
2018-09-08T11:15:43.256Z,95229.16
2018-09-08T11:18:13.576Z,95229.31
2018-09-08T11:20:44.095Z,95225.78
2018-09-08T11:23:14.610Z,95220.97
2018-09-08T11:25:45.096Z,95216.84
2018-09-08T11:28:15.470Z,95219.39
2018-09-08T11:30:45.303Z,95216.20
2018-09-08T11:33:15.022Z,95216.82
2018-09-08T11:35:44.788Z,95212.70
2018-09-08T11:38:15.382Z,95208.28
2018-09-08T11:40:45.228Z,95203.73
2018-09-08T11:43:14.836Z,95198.87
2018-09-08T11:45:45.249Z,95202.67
2018-09-08T11:48:16.107Z,95205.13
2018-09-08T11:50:46.658Z,95199.66
2018-09-08T11:53:17.167Z,95196.72
2018-09-08T11:55:47.650Z,95195.98
2018-09-08T11:58:19.049Z,95191.27
2018-09-08T12:00:49.584Z,95183.19
2018-09-08T12:03:20.421Z,95183.92
2018-09-08T12:05:51.117Z,95184.72
2018-09-08T12:08:21.779Z,95185.38
2018-09-08T12:10:52.628Z,95170.86
2018-09-08T12:13:23.062Z,95172.70
2018-09-08T12:15:53.868Z,95176.11
2018-09-08T12:18:24.746Z,95168.27
2018-09-08T12:20:55.755Z,95167.66
2018-09-08T12:23:26.404Z,95167.25
2018-09-08T12:25:56.914Z,95165.23
2018-09-08T12:28:27.860Z,95169.36
2018-09-08T12:30:58.515Z,95168.66
2018-09-08T12:33:28.908Z,95167.44
2018-09-08T12:35:59.507Z,95168.66
2018-09-08T12:38:30.045Z,95167.22
2018-09-08T12:41:00.851Z,95172.56
2018-09-08T12:43:31.252Z,95169.19
2018-09-08T12:46:01.864Z,95170.42
2018-09-08T12:48:33.074Z,95163.94
2018-09-08T12:51:03.465Z,95164.77
2018-09-08T12:53:34.241Z,95163.90
2018-09-08T12:56:04.916Z,95159.52
2018-09-08T12:58:35.231Z,95157.98
2018-09-08T13:01:05.035Z,95156.98
2018-09-08T13:03:34.824Z,95155.04
2018-09-08T13:06:04.713Z,95165.87
2018-09-08T13:08:34.477Z,95159.14
2018-09-08T13:11:04.262Z,95165.63
2018-09-08T13:13:34.009Z,95167.02
2018-09-08T13:16:03.892Z,95172.03
2018-09-08T13:18:33.623Z,95165.33
2018-09-08T13:21:03.488Z,95163.67
2018-09-08T13:23:33.413Z,95165.06
2018-09-08T13:26:03.285Z,95178.54
2018-09-08T13:28:33.124Z,95164.84
2018-09-08T13:31:02.934Z,95175.30
2018-09-08T13:33:32.685Z,95168.52
2018-09-08T13:36:02.546Z,95169.11
2018-09-08T13:38:32.309Z,95172.67
2018-09-08T13:41:02.083Z,95169.11
2018-09-08T13:43:32.143Z,95175.30
2018-09-08T13:46:01.977Z,95177.22
2018-09-08T13:48:31.763Z,95175.72
2018-09-08T13:51:01.827Z,95182.65
2018-09-08T13:53:32.366Z,95183.45
2018-09-08T13:56:02.707Z,95182.30
2018-09-08T13:58:33.167Z,95191.80
2018-09-08T14:01:03.680Z,95190.12
2018-09-08T14:03:34.282Z,95190.36
2018-09-08T14:06:04.803Z,95189.93
2018-09-08T14:08:35.451Z,95187.45
2018-09-08T14:11:06.001Z,95191.95
2018-09-08T14:13:35.862Z,95199.53
2018-09-08T14:16:05.997Z,95209.48
2018-09-08T14:18:35.846Z,95214.02
2018-09-08T14:21:05.713Z,95219.19
2018-09-08T14:23:35.499Z,95217.59
2018-09-08T14:26:05.232Z,95220.42
2018-09-08T14:28:35.110Z,95226.30
2018-09-08T14:31:04.879Z,95229.73
2018-09-08T14:33:34.788Z,95234.95
2018-09-08T14:36:04.652Z,95242.85
2018-09-08T14:38:34.776Z,95254.89
2018-09-08T14:41:04.623Z,95265.45
2018-09-08T14:43:34.450Z,95280.16
2018-09-08T14:46:04.355Z,95293.83
2018-09-08T14:48:34.105Z,95293.74
2018-09-08T14:51:04.468Z,95300.37
2018-09-08T14:53:34.352Z,95310.98
2018-09-08T14:56:05.442Z,95313.98
2018-09-08T14:58:36.588Z,95325.25
2018-09-08T15:01:07.265Z,95335.84
2018-09-08T15:03:37.822Z,95351.33
2018-09-08T15:06:08.378Z,95351.83
2018-09-08T15:08:39.130Z,95357.75
2018-09-08T15:11:09.536Z,95353.90
2018-09-08T15:13:40.006Z,95351.89
2018-09-08T15:16:10.615Z,95345.91
2018-09-08T15:18:40.942Z,95354.17
2018-09-08T15:21:11.373Z,95349.92
2018-09-08T15:23:41.919Z,95350.50
2018-09-08T15:26:12.465Z,95348.91
2018-09-08T15:28:43.317Z,95351.72
2018-09-08T15:31:13.886Z,95356.17
2018-09-08T15:33:44.416Z,95352.63
2018-09-08T15:36:15.091Z,95352.84
2018-09-08T15:38:46.262Z,95357.92
2018-09-08T15:41:17.429Z,95307.65
2018-09-08T15:43:48.128Z,95358.05
2018-09-08T15:46:18.508Z,95358.91
2018-09-08T15:48:49.776Z,95367.63
2018-09-08T15:51:20.574Z,95376.96
2018-09-08T15:53:50.814Z,95383.23
2018-09-08T15:56:21.296Z,95386.82
2018-09-08T15:58:52.892Z,95387.30
2018-09-08T16:01:23.618Z,95387.64
2018-09-08T16:03:54.246Z,95393.98
2018-09-08T16:06:24.827Z,95383.11
2018-09-08T16:08:55.193Z,95380.16
2018-09-08T16:11:25.887Z,95378.87
2018-09-08T16:13:56.274Z,95381.22
2018-09-08T16:16:26.962Z,95388.94
2018-09-08T16:18:57.732Z,95395.17
2018-09-08T16:21:28.247Z,95187.56
2018-09-08T16:23:58.932Z,95397.28
2018-09-08T16:26:29.616Z,95395.97
2018-09-08T16:29:00.213Z,95399.78
2018-09-08T16:31:30.777Z,95401.53
2018-09-08T16:34:01.295Z,95408.28
2018-09-08T16:36:31.597Z,95411.27
2018-09-08T16:39:03.043Z,95416.03
2018-09-08T16:41:33.351Z,95421.63
2018-09-08T16:44:04.026Z,95423.92
2018-09-08T16:46:34.749Z,95435.48
2018-09-08T16:49:05.676Z,95430.59
2018-09-08T16:51:36.885Z,95437.70
2018-09-08T16:54:07.458Z,95444.66
2018-09-08T16:56:38.407Z,95438.58
2018-09-08T16:59:09.381Z,95442.65
2018-09-08T17:01:39.964Z,95451.03
2018-09-08T17:04:10.670Z,95447.16
2018-09-08T17:06:41.249Z,95457.01
2018-09-08T17:09:12.043Z,95458.39
2018-09-08T17:11:42.426Z,95460.23
2018-09-08T17:14:13.090Z,95459.06
2018-09-08T17:16:43.618Z,95450.47
2018-09-08T17:19:14.423Z,95445.82
2018-09-08T17:21:45.625Z,95445.06
2018-09-08T17:24:16.050Z,95450.18
2018-09-08T17:26:46.650Z,95452.36
2018-09-08T17:29:17.726Z,95453.97
2018-09-08T17:31:48.366Z,95452.83
2018-09-08T17:34:18.954Z,95452.18
2018-09-08T17:36:49.125Z,95452.56
2018-09-08T17:39:21.162Z,95452.65
2018-09-08T17:41:51.796Z,95457.19
2018-09-08T17:44:22.175Z,95461.25
2018-09-08T17:46:52.725Z,95465.32
2018-09-08T17:49:23.575Z,95463.64
2018-09-08T17:51:54.162Z,95472.76
2018-09-08T17:54:24.928Z,95479.71
2018-09-08T17:56:55.422Z,95475.99
2018-09-08T17:59:26.474Z,95474.59
2018-09-08T18:01:57.554Z,95486.24
2018-09-08T18:04:28.307Z,95489.28
2018-09-08T18:06:58.708Z,95484.89
2018-09-08T18:09:30.460Z,95487.14
2018-09-08T18:12:01.114Z,95455.12
2018-09-08T18:14:31.824Z,95501.60
2018-09-08T18:17:02.701Z,95502.00
2018-09-08T18:19:34.139Z,95500.00
2018-09-08T18:22:04.745Z,95505.27
2018-09-08T18:27:27.930Z,95503.11
2018-09-08T18:29:58.434Z,95500.77
2018-09-08T18:32:28.863Z,95502.50
2018-09-08T18:34:59.723Z,95505.04
2018-09-08T18:37:30.319Z,95513.12
2018-09-08T18:40:00.847Z,95508.47
2018-09-08T18:42:31.607Z,95518.78
2018-09-08T18:45:03.340Z,95521.48
2018-09-08T18:47:33.971Z,95522.59
2018-09-08T18:50:04.698Z,95522.47
2018-09-08T18:52:35.599Z,95524.80
2018-09-08T18:55:06.369Z,95524.52
2018-09-08T18:57:36.848Z,95531.17
2018-09-08T19:00:06.879Z,95528.83
2018-09-08T19:02:37.389Z,95526.05
2018-09-08T19:05:08.293Z,95528.16
2018-09-08T19:07:39.116Z,95528.77
2018-09-08T19:10:09.646Z,95524.73
2018-09-08T19:12:40.147Z,95531.28
2018-09-08T19:15:15.758Z,95529.54
2018-09-08T19:17:46.567Z,95530.49
2018-09-08T19:20:21.982Z,95532.08
2018-09-08T19:22:52.710Z,95534.60
2018-09-08T19:25:24.124Z,95532.21
2018-09-08T19:27:54.764Z,95531.61
2018-09-08T19:30:24.968Z,95527.23
2018-09-08T19:32:55.478Z,95533.89
2018-09-08T19:35:31.662Z,95528.26
2018-09-08T19:38:02.146Z,95531.87
2018-09-08T19:40:37.536Z,95538.22
2018-09-08T19:43:07.936Z,95542.25
2018-09-08T19:45:38.566Z,95553.73
2018-09-08T19:48:18.834Z,95553.47
2018-09-08T19:50:49.140Z,95554.12
2018-09-08T19:53:24.796Z,95547.10
2018-09-08T19:55:56.086Z,95545.88
2018-09-08T19:58:31.863Z,95546.75
2018-09-08T20:01:02.738Z,95551.33
2018-09-08T20:03:33.455Z,95549.69
2018-09-08T20:06:04.002Z,95551.58
2018-09-08T20:08:36.575Z,95557.97
2018-09-08T20:11:06.696Z,95559.73
2018-09-08T20:13:37.513Z,95564.48
2018-09-08T20:16:08.538Z,95564.95
2018-09-08T20:18:38.982Z,95568.13
2018-09-08T20:21:09.466Z,95565.27
2018-09-08T20:23:39.903Z,95571.73
2018-09-08T20:26:11.464Z,95569.84
2018-09-08T20:28:42.216Z,95565.65
2018-09-08T20:31:12.858Z,95562.20
2018-09-08T20:33:43.413Z,95562.33
2018-09-08T20:36:14.725Z,95563.37
2018-09-08T20:38:45.112Z,95561.65
2018-09-08T20:41:15.524Z,95565.31
2018-09-08T20:43:46.210Z,95556.25
2018-09-08T20:46:17.473Z,95561.77
2018-09-08T20:48:47.979Z,95560.60
2018-09-08T20:51:18.622Z,95518.48
2018-09-08T20:53:49.341Z,95562.48
2018-09-08T20:56:20.445Z,95568.41
2018-09-08T20:58:50.681Z,95569.30
2018-09-08T21:01:21.154Z,95570.30
2018-09-08T21:03:51.611Z,95572.52
2018-09-08T21:06:23.235Z,95576.22
2018-09-08T21:08:53.890Z,95583.52
2018-09-08T21:11:24.505Z,95606.55
2018-09-08T21:13:55.088Z,95589.61
2018-09-08T21:16:25.985Z,95585.94
2018-09-08T21:18:56.419Z,95586.48
2018-09-08T21:21:26.949Z,95591.25
2018-09-08T21:23:57.567Z,95589.83
2018-09-08T21:26:28.562Z,95596.70
2018-09-08T21:28:59.159Z,95594.23
2018-09-08T21:31:29.604Z,95589.83
2018-09-08T21:34:00.173Z,95581.66
2018-09-08T21:36:31.078Z,95582.31
2018-09-08T21:39:01.499Z,95581.41
2018-09-08T21:41:32.785Z,95529.27
2018-09-08T21:44:03.585Z,95586.69
2018-09-08T21:46:35.126Z,95533.44
2018-09-08T21:49:06.178Z,95583.77
2018-09-08T21:51:36.894Z,95578.16
2018-09-08T21:54:07.914Z,95578.59
2018-09-08T21:56:38.397Z,95577.07
2018-09-08T21:59:08.839Z,95579.23
2018-09-08T22:01:39.875Z,95574.21
2018-09-08T22:04:10.398Z,95581.91
2018-09-08T22:06:41.689Z,95585.87
2018-09-08T22:09:12.548Z,95584.06
2018-09-08T22:11:43.081Z,95584.57
2018-09-08T22:14:13.602Z,95585.52
2018-09-08T22:16:44.799Z,95588.32
2018-09-08T22:19:15.266Z,95599.97
2018-09-08T22:21:45.846Z,95587.77
2018-09-08T22:24:16.275Z,95586.02
2018-09-08T22:26:46.721Z,95583.30
2018-09-08T22:29:17.330Z,95580.54
2018-09-08T22:31:48.027Z,95586.38
2018-09-08T22:34:18.546Z,95587.87
2018-09-08T22:36:49.646Z,95582.16
2018-09-08T22:39:19.966Z,95582.70
2018-09-08T22:41:50.404Z,95581.73
2018-09-08T22:44:20.957Z,95587.91
2018-09-08T22:46:52.831Z,95591.26
2018-09-08T22:49:23.859Z,95594.69
2018-09-08T22:51:54.430Z,95592.33
2018-09-08T22:54:25.410Z,95589.31
2018-09-08T22:56:56.803Z,95585.84
2018-09-08T22:59:27.309Z,95585.63
2018-09-08T23:01:58.082Z,95582.27
2018-09-08T23:04:28.525Z,95586.90
2018-09-08T23:06:59.499Z,95591.16
2018-09-08T23:09:30.000Z,95589.55
2018-09-08T23:12:00.670Z,95591.11
2018-09-08T23:14:30.783Z,95588.59
2018-09-08T23:17:01.202Z,95587.37
2018-09-08T23:19:31.837Z,95586.04
2018-09-08T23:22:02.518Z,95594.99
2018-09-08T23:24:32.930Z,95589.48
2018-09-08T23:27:04.059Z,95585.91
2018-09-08T23:29:34.573Z,95586.31
2018-09-08T23:32:04.994Z,95575.64
2018-09-08T23:34:35.551Z,95578.66
2018-09-08T23:37:06.552Z,95577.42
